createdAt,value
2018-12-31T00:01:10.840Z,72.70
2018-12-31T00:03:38.831Z,71.50
2018-12-31T00:06:06.764Z,71.60
2018-12-31T00:08:34.683Z,73.10
2018-12-31T00:11:02.531Z,73.50
2018-12-31T00:13:30.382Z,74.90
2018-12-31T00:15:58.304Z,76.10
2018-12-31T00:18:26.353Z,75.70
2018-12-31T00:20:54.313Z,75.00
2018-12-31T00:23:22.183Z,74.90
2018-12-31T00:25:50.266Z,75.40
2018-12-31T00:28:18.146Z,76.60
2018-12-31T00:30:46.069Z,76.40
2018-12-31T00:33:13.974Z,76.90
2018-12-31T00:35:41.911Z,76.80
2018-12-31T00:38:09.822Z,77.60
2018-12-31T00:40:37.751Z,78.10
2018-12-31T00:43:05.667Z,78.50
2018-12-31T00:45:33.695Z,79.20
2018-12-31T00:48:01.647Z,79.40
2018-12-31T00:50:30.220Z,79.50
2018-12-31T00:52:58.191Z,79.70
2018-12-31T00:55:26.049Z,79.50
2018-12-31T00:57:54.112Z,78.90
2018-12-31T01:00:21.981Z,78.90
2018-12-31T01:02:49.971Z,79.00
2018-12-31T01:05:17.899Z,78.40
2018-12-31T01:07:45.982Z,77.90
2018-12-31T01:10:14.138Z,78.50
2018-12-31T01:12:42.029Z,78.00
2018-12-31T01:15:10.100Z,78.00
2018-12-31T01:17:38.144Z,80.00
2018-12-31T01:20:06.179Z,80.80
2018-12-31T01:22:34.114Z,82.00
2018-12-31T01:25:02.235Z,82.60
2018-12-31T01:27:30.255Z,83.30
2018-12-31T01:29:58.150Z,84.00
2018-12-31T01:32:26.030Z,84.60
2018-12-31T01:34:53.990Z,84.90
2018-12-31T01:37:22.043Z,85.40
2018-12-31T01:39:50.116Z,85.80
2018-12-31T01:42:18.050Z,86.00
2018-12-31T01:44:46.064Z,85.90
2018-12-31T01:47:13.935Z,85.60
2018-12-31T01:49:41.736Z,85.80
2018-12-31T01:52:09.718Z,85.80
2018-12-31T01:54:37.574Z,86.00
2018-12-31T01:57:05.540Z,85.90
2018-12-31T01:59:33.495Z,85.60
2018-12-31T02:02:01.394Z,85.40
2018-12-31T02:04:29.308Z,85.40
2018-12-31T02:06:57.262Z,84.90
2018-12-31T02:09:25.303Z,84.10
2018-12-31T02:11:53.152Z,83.00
2018-12-31T02:14:21.944Z,81.80
2018-12-31T02:16:49.862Z,82.00
2018-12-31T02:19:17.836Z,82.90
2018-12-31T02:21:45.743Z,81.90
2018-12-31T02:24:13.676Z,81.60
2018-12-31T02:26:41.621Z,81.40
2018-12-31T02:29:09.513Z,82.30
2018-12-31T02:31:37.532Z,82.10
2018-12-31T02:34:05.497Z,82.00
2018-12-31T02:36:33.396Z,81.40
2018-12-31T02:39:01.395Z,81.20
2018-12-31T02:41:29.252Z,80.70
2018-12-31T02:43:57.138Z,80.20
2018-12-31T02:46:25.047Z,82.30
2018-12-31T02:48:52.999Z,82.40
2018-12-31T02:51:20.956Z,82.90
2018-12-31T02:53:51.487Z,83.20
2018-12-31T02:56:19.378Z,83.10
2018-12-31T02:58:47.436Z,83.60
2018-12-31T03:01:15.417Z,83.80
2018-12-31T03:03:43.343Z,84.40
2018-12-31T03:06:11.368Z,83.90
2018-12-31T03:08:39.462Z,83.50
2018-12-31T03:11:07.357Z,83.40
2018-12-31T03:13:35.291Z,83.50
2018-12-31T03:16:03.211Z,83.60
2018-12-31T03:18:48.356Z,83.30
2018-12-31T03:21:18.471Z,83.20
2018-12-31T03:23:46.444Z,83.00
2018-12-31T03:26:14.354Z,82.60
2018-12-31T03:28:42.411Z,82.40
2018-12-31T03:31:10.401Z,82.90
2018-12-31T03:33:38.383Z,83.10
2018-12-31T03:36:06.323Z,83.20
2018-12-31T03:38:34.751Z,82.60
2018-12-31T03:41:03.094Z,82.00
2018-12-31T03:43:31.147Z,80.70
2018-12-31T03:45:59.167Z,80.60
2018-12-31T03:48:27.099Z,80.80
2018-12-31T03:50:55.008Z,81.00
2018-12-31T03:53:23.008Z,80.60
2018-12-31T03:55:50.859Z,79.30
2018-12-31T03:58:18.757Z,79.30
2018-12-31T04:00:46.638Z,80.10
2018-12-31T04:03:14.475Z,80.40
2018-12-31T04:05:42.499Z,81.10
2018-12-31T04:08:10.439Z,80.60
2018-12-31T04:10:38.400Z,80.80
2018-12-31T04:13:06.289Z,81.00
2018-12-31T04:15:34.247Z,80.00
2018-12-31T04:18:02.156Z,81.60
2018-12-31T04:20:31.070Z,83.20
2018-12-31T04:22:59.148Z,84.00
2018-12-31T04:25:27.140Z,84.80
2018-12-31T04:27:55.061Z,85.00
2018-12-31T04:30:22.909Z,85.50
2018-12-31T04:32:50.740Z,85.90
2018-12-31T04:35:18.783Z,86.10
2018-12-31T04:37:46.831Z,86.20
2018-12-31T04:40:14.820Z,87.00
2018-12-31T04:42:42.774Z,87.00
2018-12-31T04:45:10.799Z,86.90
2018-12-31T04:47:40.683Z,86.80
2018-12-31T04:50:08.561Z,86.80
2018-12-31T04:52:36.487Z,87.20
2018-12-31T04:55:04.609Z,85.70
2018-12-31T04:57:32.467Z,85.50
2018-12-31T05:00:00.576Z,85.50
2018-12-31T05:02:28.567Z,85.90
2018-12-31T05:04:56.619Z,86.30
2018-12-31T05:07:24.704Z,86.70
2018-12-31T05:09:52.712Z,86.80
2018-12-31T05:12:20.618Z,86.70
2018-12-31T05:14:48.651Z,87.50
2018-12-31T05:17:16.580Z,87.60
2018-12-31T05:19:44.481Z,86.70
2018-12-31T05:22:12.389Z,86.80
2018-12-31T05:24:40.280Z,86.70
2018-12-31T05:27:08.200Z,86.80
2018-12-31T05:29:36.059Z,86.90
2018-12-31T05:32:04.110Z,87.10
2018-12-31T05:34:32.076Z,87.50
2018-12-31T05:36:59.986Z,87.80
2018-12-31T05:39:27.897Z,87.90
2018-12-31T05:41:55.946Z,88.40
2018-12-31T05:44:23.894Z,88.60
2018-12-31T05:46:51.862Z,88.70
2018-12-31T05:49:19.720Z,88.60
2018-12-31T05:51:47.968Z,88.90
2018-12-31T05:54:15.863Z,88.90
2018-12-31T05:56:44.045Z,88.80
2018-12-31T05:59:12.115Z,88.90
2018-12-31T06:01:40.159Z,89.10
2018-12-31T06:04:08.175Z,89.30
2018-12-31T06:06:36.170Z,89.00
2018-12-31T06:09:06.666Z,88.90
2018-12-31T06:11:34.903Z,89.10
2018-12-31T06:14:02.792Z,89.00
2018-12-31T06:16:30.775Z,89.30
2018-12-31T06:18:58.870Z,89.70
2018-12-31T06:21:26.854Z,89.70
2018-12-31T06:23:54.919Z,89.40
2018-12-31T06:26:22.887Z,90.00
2018-12-31T06:28:50.751Z,89.60
2018-12-31T06:31:18.717Z,90.00
2018-12-31T06:33:46.610Z,90.00
2018-12-31T06:36:14.450Z,90.00
2018-12-31T06:38:42.367Z,89.60
2018-12-31T06:41:10.306Z,89.90
2018-12-31T06:43:38.179Z,90.00
2018-12-31T06:46:06.642Z,90.00
2018-12-31T06:48:34.563Z,89.30
2018-12-31T06:51:02.589Z,89.20
2018-12-31T06:53:30.663Z,90.00
2018-12-31T06:55:58.643Z,90.00
2018-12-31T06:58:26.715Z,90.00
2018-12-31T07:00:54.587Z,89.90
2018-12-31T07:03:22.511Z,90.10
2018-12-31T07:05:50.639Z,90.00
2018-12-31T07:08:18.442Z,90.10
2018-12-31T07:10:46.428Z,90.00
2018-12-31T07:13:14.300Z,90.00
2018-12-31T07:15:42.410Z,90.30
2018-12-31T07:18:10.277Z,90.40
2018-12-31T07:20:38.124Z,90.40
2018-12-31T07:23:06.055Z,90.40
2018-12-31T07:25:34.242Z,90.30
2018-12-31T07:28:03.434Z,90.20
2018-12-31T07:30:33.054Z,90.10
2018-12-31T07:33:01.810Z,89.90
2018-12-31T07:35:31.381Z,89.90
2018-12-31T07:37:59.481Z,90.00
2018-12-31T07:40:27.543Z,90.00
2018-12-31T07:42:55.661Z,90.00
2018-12-31T07:45:24.221Z,90.30
2018-12-31T07:47:52.202Z,90.40
2018-12-31T07:50:20.612Z,90.60
2018-12-31T07:52:48.563Z,90.70
2018-12-31T07:55:16.865Z,90.70
2018-12-31T07:57:44.871Z,90.70
2018-12-31T08:00:12.995Z,91.00
2018-12-31T08:02:41.063Z,91.40
2018-12-31T08:05:09.341Z,91.70
2018-12-31T08:07:37.505Z,91.70
2018-12-31T08:10:05.756Z,91.70
2018-12-31T08:12:33.816Z,91.70
2018-12-31T08:15:01.783Z,91.70
2018-12-31T08:17:30.318Z,91.80
2018-12-31T08:19:58.355Z,91.80
2018-12-31T08:22:26.266Z,91.90
2018-12-31T08:24:54.347Z,92.00
2018-12-31T08:27:22.347Z,92.00
2018-12-31T08:29:50.986Z,92.20
2018-12-31T08:32:19.422Z,92.20
2018-12-31T08:34:47.812Z,92.10
2018-12-31T08:37:15.732Z,92.10
2018-12-31T08:39:43.929Z,92.10
2018-12-31T08:42:12.197Z,92.40
2018-12-31T08:44:40.895Z,92.70
2018-12-31T08:47:09.087Z,93.00
2018-12-31T08:49:37.058Z,93.20
2018-12-31T08:52:05.290Z,93.40
2018-12-31T08:55:16.191Z,93.40
2018-12-31T08:57:42.911Z,93.60
2018-12-31T09:00:10.939Z,93.80
2018-12-31T09:02:38.885Z,94.00
2018-12-31T09:05:06.793Z,94.30
2018-12-31T09:07:34.755Z,93.60
2018-12-31T09:10:03.432Z,93.50
2018-12-31T09:12:31.353Z,93.50
2018-12-31T09:15:04.488Z,93.90
2018-12-31T09:17:32.761Z,94.10
2018-12-31T09:20:00.712Z,94.20
2018-12-31T09:22:28.869Z,94.50
2018-12-31T09:24:56.877Z,94.70
2018-12-31T09:27:24.898Z,94.90
2018-12-31T09:29:52.853Z,95.00
2018-12-31T09:32:20.876Z,94.90
2018-12-31T09:34:48.788Z,95.10
2018-12-31T09:37:16.758Z,95.20
2018-12-31T09:39:44.715Z,95.50
2018-12-31T09:42:12.668Z,95.50
2018-12-31T09:44:40.783Z,95.50
2018-12-31T09:47:08.715Z,95.50
2018-12-31T09:49:36.707Z,95.50
2018-12-31T09:52:04.626Z,95.30
2018-12-31T09:54:32.519Z,95.50
2018-12-31T09:57:00.435Z,95.70
2018-12-31T09:59:28.314Z,95.80
2018-12-31T10:01:56.294Z,95.60
2018-12-31T10:04:24.254Z,95.70
2018-12-31T10:06:52.291Z,95.40
2018-12-31T10:09:20.267Z,95.40
2018-12-31T10:11:48.103Z,95.70
2018-12-31T10:14:38.130Z,95.70
2018-12-31T10:17:07.011Z,95.80
2018-12-31T10:19:35.179Z,95.70
2018-12-31T10:22:03.396Z,95.30
2018-12-31T10:24:31.606Z,94.90
2018-12-31T10:26:59.527Z,95.00
2018-12-31T10:29:27.943Z,95.80
2018-12-31T10:31:56.084Z,95.60
2018-12-31T10:34:24.011Z,95.00
2018-12-31T10:36:52.127Z,95.30
2018-12-31T10:39:19.975Z,94.80
2018-12-31T10:41:48.009Z,94.80
2018-12-31T10:44:16.103Z,94.80
2018-12-31T10:46:44.335Z,94.90
2018-12-31T10:49:12.296Z,94.40
2018-12-31T10:51:40.979Z,93.20
2018-12-31T10:54:09.008Z,93.00
2018-12-31T10:56:37.150Z,93.10
2018-12-31T10:59:05.019Z,92.50
2018-12-31T11:01:32.946Z,92.70
2018-12-31T11:04:01.012Z,92.80
2018-12-31T11:06:29.037Z,92.20
2018-12-31T11:08:57.028Z,92.20
2018-12-31T11:11:27.688Z,91.60
2018-12-31T11:13:55.652Z,92.40
2018-12-31T11:16:23.521Z,91.80
2018-12-31T11:24:49.182Z,90.60
2018-12-31T11:27:17.105Z,90.70
2018-12-31T11:29:44.915Z,91.30
2018-12-31T11:32:13.693Z,90.50
2018-12-31T11:34:41.678Z,91.50
2018-12-31T11:37:10.174Z,92.00
2018-12-31T11:39:38.471Z,91.20
2018-12-31T11:42:06.758Z,91.10
2018-12-31T11:44:34.766Z,91.30
2018-12-31T11:47:03.286Z,91.00
2018-12-31T11:49:31.321Z,91.20
2018-12-31T11:51:59.380Z,92.00
2018-12-31T11:54:27.274Z,92.00
2018-12-31T11:56:55.162Z,91.90
2018-12-31T11:59:23.210Z,91.10
2018-12-31T12:01:51.056Z,91.00
2018-12-31T12:04:19.077Z,90.40
2018-12-31T12:06:47.108Z,90.60
2018-12-31T12:09:15.136Z,90.00
2018-12-31T12:11:43.310Z,89.50
2018-12-31T12:14:18.714Z,89.40
2018-12-31T12:16:46.611Z,87.90
2018-12-31T12:19:14.594Z,87.70
2018-12-31T12:21:42.622Z,86.70
2018-12-31T12:24:10.545Z,86.00
2018-12-31T12:26:38.515Z,85.00
2018-12-31T12:29:06.455Z,83.80
2018-12-31T12:31:34.651Z,82.50
2018-12-31T12:34:02.525Z,83.90
2018-12-31T12:36:30.491Z,82.10
2018-12-31T12:38:58.405Z,83.10
2018-12-31T12:41:26.348Z,80.50
2018-12-31T12:43:54.554Z,81.70
2018-12-31T12:46:22.484Z,80.80
2018-12-31T12:48:50.432Z,80.10
2018-12-31T12:51:18.405Z,77.80
2018-12-31T12:53:46.357Z,77.40
2018-12-31T12:56:14.382Z,77.80
2018-12-31T12:58:42.523Z,75.30
2018-12-31T13:01:10.668Z,75.60
2018-12-31T13:03:38.505Z,72.30
2018-12-31T13:06:06.450Z,72.70
2018-12-31T13:08:34.420Z,67.60
2018-12-31T13:11:02.576Z,69.80
2018-12-31T13:13:30.719Z,68.70
2018-12-31T13:15:58.706Z,68.90
2018-12-31T13:18:26.702Z,70.10
2018-12-31T13:20:54.631Z,70.60
2018-12-31T13:23:23.071Z,70.50
2018-12-31T13:25:51.092Z,68.50
2018-12-31T13:28:19.023Z,67.30
2018-12-31T13:30:46.999Z,65.60
2018-12-31T13:33:14.969Z,65.70
2018-12-31T13:35:42.779Z,65.10
2018-12-31T13:38:10.845Z,63.80
2018-12-31T13:40:38.756Z,64.90
2018-12-31T13:43:06.695Z,67.00
2018-12-31T13:45:34.727Z,67.00
2018-12-31T13:48:02.615Z,66.70
2018-12-31T13:50:31.925Z,63.90
2018-12-31T13:52:59.911Z,64.10
2018-12-31T13:55:27.987Z,64.80
2018-12-31T13:57:56.035Z,64.30
2018-12-31T14:00:24.112Z,63.50
2018-12-31T14:02:52.364Z,63.60
2018-12-31T14:05:20.224Z,62.80
2018-12-31T14:07:48.204Z,62.60
2018-12-31T14:10:16.125Z,63.40
2018-12-31T14:12:44.055Z,63.80
2018-12-31T14:15:46.828Z,64.00
2018-12-31T14:18:13.615Z,64.30
2018-12-31T14:20:41.583Z,63.70
2018-12-31T14:23:09.933Z,65.00
2018-12-31T14:25:38.119Z,68.40
2018-12-31T14:28:05.963Z,69.30
2018-12-31T14:30:34.022Z,67.80
2018-12-31T14:33:01.951Z,67.80
2018-12-31T14:35:31.035Z,67.90
2018-12-31T14:37:59.048Z,68.90
2018-12-31T14:40:27.037Z,67.60
2018-12-31T14:42:54.971Z,65.30
2018-12-31T14:45:23.028Z,64.60
2018-12-31T14:47:50.912Z,65.80
2018-12-31T14:50:20.776Z,66.30
2018-12-31T14:52:49.174Z,63.90
2018-12-31T14:55:17.307Z,66.30
2018-12-31T14:57:45.331Z,70.20
2018-12-31T15:00:13.295Z,70.50
2018-12-31T15:02:41.503Z,69.40
2018-12-31T15:05:09.529Z,71.30
2018-12-31T15:07:37.539Z,72.80
2018-12-31T15:10:06.691Z,74.30
2018-12-31T15:12:34.783Z,75.80
2018-12-31T15:15:29.367Z,76.70
2018-12-31T15:17:56.959Z,77.30
2018-12-31T15:20:24.907Z,77.80
2018-12-31T15:22:52.915Z,78.00
2018-12-31T15:25:21.278Z,78.50
2018-12-31T15:27:49.256Z,78.50
2018-12-31T15:30:17.412Z,78.70
2018-12-31T15:32:45.491Z,78.90
2018-12-31T15:35:13.603Z,79.00
2018-12-31T15:37:42.051Z,79.20
2018-12-31T15:40:09.922Z,79.30
2018-12-31T15:42:37.893Z,79.70
2018-12-31T15:45:06.995Z,79.60
2018-12-31T15:47:35.255Z,80.40
2018-12-31T15:50:03.539Z,80.60
2018-12-31T15:52:31.611Z,80.90
2018-12-31T15:54:59.907Z,81.00
2018-12-31T15:57:27.930Z,81.20
2018-12-31T15:59:55.972Z,80.90
2018-12-31T16:02:24.086Z,80.80
2018-12-31T16:04:53.343Z,80.60
2018-12-31T16:07:21.397Z,80.60
2018-12-31T16:09:49.306Z,80.60
2018-12-31T16:12:17.344Z,81.20
2018-12-31T16:15:07.448Z,80.90
2018-12-31T16:17:35.095Z,80.50
2018-12-31T16:20:03.444Z,80.60
2018-12-31T16:22:31.446Z,80.60
2018-12-31T16:24:59.315Z,80.40
2018-12-31T16:27:27.602Z,80.10
2018-12-31T16:29:55.555Z,80.10
2018-12-31T16:32:23.600Z,80.00
2018-12-31T16:34:51.599Z,80.20
2018-12-31T16:37:19.588Z,80.50
2018-12-31T16:39:47.940Z,80.20
2018-12-31T16:42:15.962Z,80.40
2018-12-31T16:44:44.084Z,80.90
2018-12-31T16:47:12.077Z,81.10
2018-12-31T16:49:40.059Z,80.80
2018-12-31T16:52:08.038Z,80.80
2018-12-31T16:54:35.983Z,80.90
2018-12-31T16:57:05.233Z,80.70
2018-12-31T16:59:33.500Z,81.00
2018-12-31T17:02:01.512Z,80.90
2018-12-31T17:04:29.554Z,81.00
2018-12-31T17:06:57.848Z,81.30
2018-12-31T17:09:26.773Z,80.80
2018-12-31T17:11:55.644Z,80.00
2018-12-31T17:14:45.375Z,80.60
2018-12-31T17:17:14.243Z,81.00
2018-12-31T17:19:43.059Z,80.90
2018-12-31T17:22:11.967Z,81.00
2018-12-31T17:24:40.098Z,81.00
2018-12-31T17:27:09.222Z,81.00
2018-12-31T17:29:38.273Z,80.60
2018-12-31T17:32:07.035Z,80.20
2018-12-31T17:34:36.092Z,80.00
2018-12-31T17:37:04.149Z,80.20
2018-12-31T17:39:32.825Z,80.60
2018-12-31T17:42:09.455Z,79.90
2018-12-31T17:44:32.363Z,79.30
2018-12-31T17:47:00.540Z,79.50
2018-12-31T17:49:30.416Z,79.20
2018-12-31T17:52:00.457Z,78.50
2018-12-31T17:54:31.829Z,78.80
2018-12-31T17:57:02.307Z,79.40
2018-12-31T17:59:32.817Z,79.50
2018-12-31T18:02:33.686Z,79.30
2018-12-31T18:05:04.421Z,79.30
2018-12-31T18:07:35.259Z,79.10
2018-12-31T18:10:06.352Z,79.10
2018-12-31T18:12:37.216Z,79.10
2018-12-31T18:15:28.357Z,79.00
2018-12-31T18:17:59.096Z,79.50
2018-12-31T18:20:30.694Z,79.50
2018-12-31T18:23:01.211Z,79.70
2018-12-31T18:25:33.694Z,79.40
2018-12-31T18:28:04.341Z,79.50
2018-12-31T18:30:36.567Z,79.50
2018-12-31T18:33:07.219Z,79.60
2018-12-31T18:35:39.361Z,79.50
2018-12-31T18:38:10.274Z,79.30
2018-12-31T18:40:40.631Z,79.20
2018-12-31T18:43:09.410Z,79.40
2018-12-31T18:45:41.328Z,80.20
2018-12-31T18:48:09.488Z,80.30
2018-12-31T18:50:38.487Z,80.40
2018-12-31T18:53:26.793Z,79.80
2018-12-31T18:55:57.602Z,80.20
2018-12-31T18:58:28.473Z,80.50
2018-12-31T19:00:59.216Z,80.20
2018-12-31T19:03:29.810Z,80.00
2018-12-31T19:06:00.104Z,79.40
2018-12-31T19:08:33.176Z,80.20
2018-12-31T19:11:21.201Z,80.60
2018-12-31T19:13:53.238Z,80.60
2018-12-31T19:16:37.529Z,80.80
2018-12-31T19:19:14.483Z,80.00
2018-12-31T19:21:48.140Z,80.00
2018-12-31T19:24:40.584Z,80.70
2018-12-31T19:27:36.676Z,80.20
2018-12-31T19:30:32.471Z,78.60
2018-12-31T19:33:18.436Z,79.20
2018-12-31T19:36:50.442Z,79.60
2018-12-31T19:39:21.699Z,78.30
2018-12-31T19:41:51.458Z,79.30
2018-12-31T19:44:27.385Z,79.90
2018-12-31T19:46:56.178Z,79.60
2018-12-31T19:49:35.048Z,78.80
2018-12-31T19:52:22.198Z,79.50
2018-12-31T19:54:50.121Z,81.30
2018-12-31T19:57:18.176Z,80.90
2018-12-31T20:00:08.160Z,80.20
2018-12-31T20:02:36.297Z,80.00
2018-12-31T20:05:07.046Z,80.20
2018-12-31T20:07:34.871Z,80.20
2018-12-31T20:10:03.246Z,80.80
2018-12-31T20:12:31.615Z,79.90
2018-12-31T20:15:13.811Z,79.50
2018-12-31T20:17:43.401Z,80.40
2018-12-31T20:20:11.585Z,79.10
2018-12-31T20:22:39.637Z,78.90
2018-12-31T20:25:07.763Z,79.50
2018-12-31T20:27:35.650Z,80.30
2018-12-31T20:30:04.176Z,79.70
2018-12-31T20:32:32.053Z,79.80
2018-12-31T20:35:02.343Z,79.80
2018-12-31T20:37:30.554Z,79.80
2018-12-31T20:39:59.506Z,79.70
2018-12-31T20:42:27.403Z,79.70
2018-12-31T20:44:55.391Z,79.70
2018-12-31T20:47:23.411Z,79.10
2018-12-31T20:49:53.584Z,79.10
2018-12-31T20:52:24.263Z,79.40
2018-12-31T20:54:54.952Z,79.00
2018-12-31T20:57:25.603Z,79.00
2018-12-31T20:59:53.546Z,78.70
2018-12-31T21:02:21.483Z,78.90
2018-12-31T21:04:49.787Z,78.40
2018-12-31T21:07:22.133Z,78.60
2018-12-31T21:10:44.367Z,78.40
2018-12-31T21:13:50.143Z,78.10
2018-12-31T21:16:37.225Z,78.70
2018-12-31T21:19:07.770Z,79.50
2018-12-31T21:21:38.230Z,79.40
2018-12-31T21:24:06.667Z,79.50
2018-12-31T21:26:55.848Z,79.50
2018-12-31T21:29:27.915Z,79.20
2018-12-31T21:31:59.898Z,80.40
2018-12-31T21:34:31.536Z,80.70
2018-12-31T21:37:04.265Z,80.80
2018-12-31T21:39:32.219Z,80.70
2018-12-31T21:42:03.966Z,80.70
2018-12-31T21:44:36.321Z,80.80
2018-12-31T21:47:08.474Z,80.60
2018-12-31T21:49:40.476Z,80.60
2018-12-31T21:52:13.271Z,81.10
2018-12-31T21:54:45.059Z,81.20
2018-12-31T21:57:16.044Z,80.80
2018-12-31T21:59:43.982Z,80.60
2018-12-31T22:02:11.921Z,80.80
2018-12-31T22:04:39.869Z,80.60
2018-12-31T22:07:08.084Z,80.40
2018-12-31T22:09:35.996Z,80.50
2018-12-31T22:12:06.761Z,80.60
2018-12-31T22:14:56.300Z,80.60
2018-12-31T22:17:24.375Z,80.50
2018-12-31T22:19:55.369Z,80.50
2018-12-31T22:22:23.372Z,80.40
2018-12-31T22:24:51.364Z,80.20
2018-12-31T22:27:19.287Z,79.70
2018-12-31T22:29:47.641Z,79.70
2018-12-31T22:32:18.068Z,79.50
2018-12-31T22:35:01.500Z,79.50
2018-12-31T22:37:32.163Z,79.00
2018-12-31T22:40:00.491Z,78.30
2018-12-31T22:42:28.399Z,79.70
2018-12-31T22:44:58.369Z,80.50
2018-12-31T22:47:26.218Z,80.60
2018-12-31T22:49:56.688Z,80.30
2018-12-31T22:52:26.528Z,80.30
2018-12-31T22:54:54.571Z,80.20
2018-12-31T22:57:22.422Z,79.70
2018-12-31T22:59:50.463Z,80.30
2018-12-31T23:02:18.363Z,80.90
2018-12-31T23:05:07.741Z,81.30
2018-12-31T23:08:28.273Z,81.90
2018-12-31T23:11:12.275Z,82.50
2018-12-31T23:14:00.123Z,82.10
2018-12-31T23:16:43.161Z,81.60
2018-12-31T23:19:50.026Z,81.30
2018-12-31T23:22:39.769Z,82.10
2018-12-31T23:25:08.028Z,81.80
2018-12-31T23:27:47.846Z,81.60
2018-12-31T23:31:08.448Z,81.90
2018-12-31T23:34:51.098Z,82.20
2018-12-31T23:37:19.410Z,81.80
2018-12-31T23:40:38.442Z,82.10
2018-12-31T23:43:18.395Z,81.90
2018-12-31T23:46:44.275Z,81.60
2018-12-31T23:50:09.323Z,82.10
2018-12-31T23:52:40.735Z,82.60
2018-12-31T23:55:08.910Z,82.10
2018-12-31T23:57:39.482Z,82.30
